CSL Niagara — VCGJ — position and weather

sailwx.info

Track history (hours):
 
Tides and Currents Weather Stations Pressure Air Temp Water Temp Dewpoint Dewpoint Depression Visibility Wind Speed Wind Dir Waves Ship Positions

CSL Niagara

ex J. W. McGiffin

Last reported at 2017-Apr-26 04:24 UTC. Time now 2017-Apr-27 01:32 UTC.
Position N 45°14' W 074°11'.

Length 225 m; draft 7.7 m.

Type: Cargo ship. MMSI: 316029000.

Date/timePositionNaut miles runAvg speedWind from/ knotsBaromVisibWave heightAir tempDewpointWater temp
2017-Apr-26 04:24N 45°14' W 074°11'6 8.8
2017-Apr-26 03:43N 45°13' W 074°02'2 8.8
2017-Apr-26 03:26N 45°15' W 073°59'4 8.9
2017-Apr-26 03:00N 45°18' W 073°56'1 1.1
2017-Apr-26 02:30N 45°18' W 073°56'1 1.5
2017-Apr-26 02:00N 45°19' W 073°55'0 0.8
2017-Apr-26 01:30N 45°19' W 073°55'4 7.3
2017-Apr-26 01:00N 45°22' W 073°51'510.1
2017-Apr-26 00:30N 45°24' W 073°45'3 6.5
2017-Apr-26 00:00N 45°25' W 073°40'3 5.6
2017-Apr-25 23:30N 45°24' W 073°36'2 3.0
2017-Apr-25 23:00N 45°24' W 073°34'1 1.6
2017-Apr-25 22:30N 45°24' W 073°33'5 0.1
2017-Apr-24 08:38N 45°30' W 073°31'1 1.5
2017-Apr-24 08:14N 45°29' W 073°31'1 3.6
2017-Apr-24 08:00N 45°28' W 073°30'3 5.9
2017-Apr-24 07:30N 45°25' W 073°30'3 5.1
2017-Apr-24 07:00N 45°24' W 073°34'0 0.3
2017-Apr-24 06:30N 45°24' W 073°34'1 1.3
2017-Apr-24 06:00N 45°24' W 073°35'2 4.5
2017-Apr-24 05:30N 45°24' W 073°38'3 5.7
2017-Apr-24 05:00N 45°25' W 073°42'4 8.5
2017-Apr-24 04:30N 45°24' W 073°48'611.6
2017-Apr-24 04:00N 45°20' W 073°54'1 2.3
2017-Apr-24 03:30N 45°19' W 073°55'0 0.9
2017-Apr-24 03:00N 45°19' W 073°55'0 0.7
2017-Apr-24 02:30N 45°18' W 073°56'0 1.0
2017-Apr-24 02:00N 45°18' W 073°56'3 6.3
2017-Apr-24 01:30N 45°15' W 073°58'6 9.6
2017-Apr-24 00:52N 45°14' W 074°07'  
2017-Apr-19 07:43N 46°60' W 091°29'312.0
2017-Apr-19 07:30N 46°58' W 091°32'612.0
2017-Apr-19 07:00N 46°56' W 091°40'612.0
2017-Apr-19 06:30N 46°53' W 091°48'611.9
2017-Apr-19 06:00N 46°50' W 091°56'611.8
2017-Apr-19 05:30N 46°47' W 092°03'2 4.7
2017-Apr-19 05:00N 46°46' W 092°06'0 0.6
2017-Apr-19 04:30N 46°46' W 092°06'0 0.0
2017-Apr-19 04:00N 46°46' W 092°06'0 0.0
2017-Apr-19 03:30N 46°46' W 092°06'0 0.0
2017-Apr-19 03:00N 46°46' W 092°06'0 0.0
2017-Apr-19 02:30N 46°46' W 092°06'0 0.0
2017-Apr-19 02:01N 46°46' W 092°06'2 0.6
2017-Apr-18 23:12N 46°45' W 092°08'0 0.0
2017-Apr-18 23:01N 46°45' W 092°08'0 0.0
2017-Apr-18 22:29N 46°45' W 092°08'0 0.0
2017-Apr-18 22:00N 46°45' W 092°08'0 0.0
2017-Apr-18 21:30N 46°45' W 092°08'0 0.0
2017-Apr-18 21:00N 46°45' W 092°08'0 0.0
2017-Apr-18 20:30N 46°45' W 092°08'0 0.0
2017-Apr-18 20:00N 46°45' W 092°08'0 0.0
2017-Apr-18 19:30N 46°45' W 092°08'0 0.0
2017-Apr-18 19:00N 46°45' W 092°08'0 0.0
2017-Apr-18 18:30N 46°45' W 092°08'0 0.0
2017-Apr-18 18:00N 46°45' W 092°08'0 0.0
2017-Apr-18 17:30N 46°45' W 092°08'0 0.0
2017-Apr-18 17:00N 46°45' W 092°08'0 0.0
2017-Apr-18 16:30N 46°45' W 092°08'0 0.0
2017-Apr-18 16:00N 46°45' W 092°08'0 0.0
2017-Apr-18 15:30N 46°45' W 092°08'0 0.0
2017-Apr-18 15:00N 46°45' W 092°08'0 0.0
2017-Apr-18 14:30N 46°45' W 092°08'0 0.0
2017-Apr-18 13:30N 46°45' W 092°08'0 0.0
2017-Apr-18 13:01N 46°45' W 092°08'0 0.0
2017-Apr-18 12:30N 46°45' W 092°08'0 0.1
2017-Apr-18 12:01N 46°45' W 092°08'0 0.0
2017-Apr-18 11:30N 46°45' W 092°08'0 0.0
2017-Apr-18 11:00N 46°45' W 092°08'0 0.0
2017-Apr-18 10:30N 46°45' W 092°08'0 0.0
2017-Apr-18 10:00N 46°45' W 092°08'0 0.0
2017-Apr-18 09:30N 46°45' W 092°08'0 0.0
2017-Apr-18 09:01N 46°45' W 092°08'0 0.0
2017-Apr-18 08:30N 46°45' W 092°08'1 2.0
2017-Apr-18 08:00N 46°45' W 092°07'2 3.6
2017-Apr-18 07:30N 46°47' W 092°06'5 9.5
2017-Apr-18 07:00N 46°48' W 091°59'612.7
2017-Apr-18 06:30N 46°51' W 091°51'612.6
2017-Apr-18 06:00N 46°53' W 091°42'612.6
2017-Apr-18 05:30N 46°56' W 091°34'  
Track history (hours):
 
Tides and Currents Weather Stations Pressure Air Temp Water Temp Dewpoint Dewpoint Depression Visibility Wind Speed Wind Dir Waves Ship Positions

CSL Niagara

ex J. W. McGiffin

Last reported at 2017-Apr-26 04:24 UTC. Time now 2017-Apr-27 01:32 UTC.
Position N 45°14' W 074°11'.

Length 225 m; draft 7.7 m.

Type: Cargo ship. MMSI: 316029000.

Date/timePositionNaut miles runAvg speedWind from/ knotsBaromVisibWave heightAir tempDewpointWater temp
2017-Apr-26 04:24N 45°14' W 074°11'6 8.8
2017-Apr-26 03:43N 45°13' W 074°02'2 8.8
2017-Apr-26 03:26N 45°15' W 073°59'4 8.9
2017-Apr-26 03:00N 45°18' W 073°56'1 1.1
2017-Apr-26 02:30N 45°18' W 073°56'1 1.5
2017-Apr-26 02:00N 45°19' W 073°55'0 0.8
2017-Apr-26 01:30N 45°19' W 073°55'4 7.3
2017-Apr-26 01:00N 45°22' W 073°51'510.1
2017-Apr-26 00:30N 45°24' W 073°45'3 6.5
2017-Apr-26 00:00N 45°25' W 073°40'3 5.6
2017-Apr-25 23:30N 45°24' W 073°36'2 3.0
2017-Apr-25 23:00N 45°24' W 073°34'1 1.6
2017-Apr-25 22:30N 45°24' W 073°33'5 0.1
2017-Apr-24 08:38N 45°30' W 073°31'1 1.5
2017-Apr-24 08:14N 45°29' W 073°31'1 3.6
2017-Apr-24 08:00N 45°28' W 073°30'3 5.9
2017-Apr-24 07:30N 45°25' W 073°30'3 5.1
2017-Apr-24 07:00N 45°24' W 073°34'0 0.3
2017-Apr-24 06:30N 45°24' W 073°34'1 1.3
2017-Apr-24 06:00N 45°24' W 073°35'2 4.5
2017-Apr-24 05:30N 45°24' W 073°38'3 5.7
2017-Apr-24 05:00N 45°25' W 073°42'4 8.5
2017-Apr-24 04:30N 45°24' W 073°48'611.6
2017-Apr-24 04:00N 45°20' W 073°54'1 2.3
2017-Apr-24 03:30N 45°19' W 073°55'0 0.9
2017-Apr-24 03:00N 45°19' W 073°55'0 0.7
2017-Apr-24 02:30N 45°18' W 073°56'0 1.0
2017-Apr-24 02:00N 45°18' W 073°56'3 6.3
2017-Apr-24 01:30N 45°15' W 073°58'6 9.6
2017-Apr-24 00:52N 45°14' W 074°07'  
2017-Apr-19 07:43N 46°60' W 091°29'312.0
2017-Apr-19 07:30N 46°58' W 091°32'612.0
2017-Apr-19 07:00N 46°56' W 091°40'612.0
2017-Apr-19 06:30N 46°53' W 091°48'611.9
2017-Apr-19 06:00N 46°50' W 091°56'611.8
2017-Apr-19 05:30N 46°47' W 092°03'2 4.7
2017-Apr-19 05:00N 46°46' W 092°06'0 0.6
2017-Apr-19 04:30N 46°46' W 092°06'0 0.0
2017-Apr-19 04:00N 46°46' W 092°06'0 0.0
2017-Apr-19 03:30N 46°46' W 092°06'0 0.0
2017-Apr-19 03:00N 46°46' W 092°06'0 0.0
2017-Apr-19 02:30N 46°46' W 092°06'0 0.0
2017-Apr-19 02:01N 46°46' W 092°06'2 0.6
2017-Apr-18 23:12N 46°45' W 092°08'0 0.0
2017-Apr-18 23:01N 46°45' W 092°08'0 0.0
2017-Apr-18 22:29N 46°45' W 092°08'0 0.0
2017-Apr-18 22:00N 46°45' W 092°08'0 0.0
2017-Apr-18 21:30N 46°45' W 092°08'0 0.0
2017-Apr-18 21:00N 46°45' W 092°08'0 0.0
2017-Apr-18 20:30N 46°45' W 092°08'0 0.0
2017-Apr-18 20:00N 46°45' W 092°08'0 0.0
2017-Apr-18 19:30N 46°45' W 092°08'0 0.0
2017-Apr-18 19:00N 46°45' W 092°08'0 0.0
2017-Apr-18 18:30N 46°45' W 092°08'0 0.0
2017-Apr-18 18:00N 46°45' W 092°08'0 0.0
2017-Apr-18 17:30N 46°45' W 092°08'0 0.0
2017-Apr-18 17:00N 46°45' W 092°08'0 0.0
2017-Apr-18 16:30N 46°45' W 092°08'0 0.0
2017-Apr-18 16:00N 46°45' W 092°08'0 0.0
2017-Apr-18 15:30N 46°45' W 092°08'0 0.0
2017-Apr-18 15:00N 46°45' W 092°08'0 0.0
2017-Apr-18 14:30N 46°45' W 092°08'0 0.0
2017-Apr-18 13:30N 46°45' W 092°08'0 0.0
2017-Apr-18 13:01N 46°45' W 092°08'0 0.0
2017-Apr-18 12:30N 46°45' W 092°08'0 0.1
2017-Apr-18 12:01N 46°45' W 092°08'0 0.0
2017-Apr-18 11:30N 46°45' W 092°08'0 0.0
2017-Apr-18 11:00N 46°45' W 092°08'0 0.0
2017-Apr-18 10:30N 46°45' W 092°08'0 0.0
2017-Apr-18 10:00N 46°45' W 092°08'0 0.0
2017-Apr-18 09:30N 46°45' W 092°08'0 0.0
2017-Apr-18 09:01N 46°45' W 092°08'0 0.0
2017-Apr-18 08:30N 46°45' W 092°08'1 2.0
2017-Apr-18 08:00N 46°45' W 092°07'2 3.6
2017-Apr-18 07:30N 46°47' W 092°06'5 9.5
2017-Apr-18 07:00N 46°48' W 091°59'612.7
2017-Apr-18 06:30N 46°51' W 091°51'612.6
2017-Apr-18 06:00N 46°53' W 091°42'612.6
2017-Apr-18 05:30N 46°56' W 091°34'  

Dump ship's entire track history